createdAt,value
2023-03-16T00:01:06.199Z,1.32
2023-03-16T00:03:38.238Z,1.29
2023-03-16T00:06:10.155Z,1.29
2023-03-16T00:08:43.244Z,1.30
2023-03-16T00:11:14.903Z,1.31
2023-03-16T00:13:47.856Z,1.31
2023-03-16T00:16:19.577Z,1.31
2023-03-16T00:18:51.300Z,1.23
2023-03-16T00:21:22.984Z,1.20
2023-03-16T00:23:54.655Z,1.22
2023-03-16T00:26:26.437Z,1.23
2023-03-16T00:28:58.321Z,1.22
2023-03-16T00:31:30.056Z,1.19
2023-03-16T00:34:04.679Z,1.17
2023-03-16T00:36:38.313Z,1.15
2023-03-16T00:39:11.850Z,1.14
2023-03-16T00:41:44.076Z,1.10
2023-03-16T00:44:16.863Z,1.09
2023-03-16T00:46:48.488Z,1.08
2023-03-16T00:49:22.461Z,1.08
2023-03-16T00:51:54.259Z,1.06
2023-03-16T00:54:27.124Z,1.06
2023-03-16T00:57:00.135Z,1.03
2023-03-16T00:59:32.130Z,1.02
2023-03-16T01:02:05.508Z,1.02
2023-03-16T01:04:38.079Z,0.98
2023-03-16T01:07:13.493Z,0.95
2023-03-16T01:09:45.601Z,0.90
2023-03-16T01:12:19.522Z,0.88
2023-03-16T01:14:51.233Z,0.86
2023-03-16T01:17:23.952Z,0.83
2023-03-16T01:19:55.653Z,0.81
2023-03-16T01:22:28.640Z,0.81
2023-03-16T01:25:00.327Z,0.79
2023-03-16T01:27:32.979Z,0.80
2023-03-16T01:30:06.352Z,0.79
2023-03-16T01:32:39.969Z,0.79
2023-03-16T01:35:12.704Z,0.79
2023-03-16T01:37:44.649Z,0.76
2023-03-16T01:40:22.246Z,0.74
2023-03-16T01:43:04.864Z,0.72
2023-03-16T01:46:06.087Z,0.69
2023-03-16T01:49:05.518Z,0.67
2023-03-16T01:51:50.857Z,0.68
2023-03-16T01:54:34.273Z,0.67
2023-03-16T01:57:10.457Z,0.66
2023-03-16T01:59:49.420Z,0.65
2023-03-16T02:02:24.126Z,0.65
2023-03-16T02:05:08.128Z,0.63
2023-03-16T02:07:46.447Z,0.62
2023-03-16T02:10:20.391Z,0.61
2023-03-16T02:12:53.471Z,0.57
2023-03-16T02:15:27.366Z,0.53
2023-03-16T02:18:00.263Z,0.52
2023-03-16T02:21:07.324Z,0.49
2023-03-16T02:23:39.108Z,0.48
2023-03-16T02:26:35.668Z,0.46
2023-03-16T02:29:40.393Z,0.47
2023-03-16T02:32:14.421Z,0.47
2023-03-16T02:34:46.285Z,0.44
2023-03-16T02:37:18.556Z,0.38
2023-03-16T02:39:52.359Z,0.33
2023-03-16T02:42:28.997Z,0.32
2023-03-16T02:45:05.340Z,0.31
2023-03-16T02:47:44.621Z,0.28
2023-03-16T02:50:17.229Z,0.23
2023-03-16T02:52:48.998Z,0.23
2023-03-16T02:55:21.795Z,0.26
2023-03-16T02:57:53.818Z,0.30
2023-03-16T03:00:26.098Z,0.29
2023-03-16T03:02:59.025Z,0.25
2023-03-16T03:05:30.988Z,0.23
2023-03-16T03:08:03.231Z,0.24
2023-03-16T03:10:35.059Z,0.25
2023-03-16T03:13:07.470Z,0.24
2023-03-16T03:15:40.135Z,0.22
2023-03-16T03:18:14.890Z,0.21
2023-03-16T03:20:46.599Z,0.20
2023-03-16T03:23:20.443Z,0.19
2023-03-16T03:25:52.112Z,0.17
2023-03-16T03:28:23.971Z,0.18
2023-03-16T03:30:57.170Z,0.17
2023-03-16T03:33:29.168Z,0.16
2023-03-16T03:36:03.026Z,0.16
2023-03-16T03:38:43.643Z,0.14
2023-03-16T03:41:15.472Z,0.12
2023-03-16T03:43:47.583Z,0.09
2023-03-16T03:46:22.582Z,0.07
2023-03-16T03:48:54.336Z,0.07
2023-03-16T03:51:26.032Z,0.06
2023-03-16T03:54:04.948Z,0.05
2023-03-16T03:56:45.680Z,0.06
2023-03-16T03:59:20.866Z,0.03
2023-03-16T04:02:04.586Z,0.04
2023-03-16T04:04:47.755Z,0.03
2023-03-16T04:07:20.319Z,0.05
2023-03-16T04:09:53.569Z,0.02
2023-03-16T04:12:40.217Z,0.00
2023-03-16T04:15:16.156Z,-0.01
2023-03-16T04:18:13.006Z,0.01
2023-03-16T04:20:45.881Z,0.00
2023-03-16T04:23:22.340Z,-0.02
2023-03-16T04:25:55.534Z,-0.05
2023-03-16T04:28:27.874Z,-0.08
2023-03-16T04:31:05.381Z,-0.12
2023-03-16T04:33:42.416Z,-0.13
2023-03-16T04:36:14.800Z,-0.15
2023-03-16T04:38:47.808Z,-0.18
2023-03-16T04:41:22.618Z,-0.17
2023-03-16T04:44:07.887Z,-0.23
2023-03-16T04:46:40.271Z,-0.26
2023-03-16T04:49:14.620Z,-0.25
2023-03-16T04:51:49.263Z,-0.23
2023-03-16T04:54:24.217Z,-0.21
2023-03-16T04:56:55.902Z,-0.21
2023-03-16T04:59:41.723Z,-0.22
2023-03-16T05:02:35.499Z,-0.22
2023-03-16T05:05:10.932Z,-0.20
2023-03-16T05:07:46.541Z,-0.21
2023-03-16T05:10:19.372Z,-0.22
2023-03-16T05:12:52.159Z,-0.21
2023-03-16T05:15:23.949Z,-0.20
2023-03-16T05:18:03.898Z,-0.19
2023-03-16T05:20:35.995Z,-0.18
2023-03-16T05:23:09.262Z,-0.18
2023-03-16T05:25:49.546Z,-0.16
2023-03-16T05:28:23.742Z,-0.13
2023-03-16T05:31:07.337Z,-0.11
2023-03-16T05:33:49.751Z,-0.04
2023-03-16T05:36:24.818Z,0.02
2023-03-16T05:39:03.232Z,0.10
2023-03-16T05:41:41.708Z,0.20
2023-03-16T05:44:21.227Z,0.31
2023-03-16T05:47:19.858Z,0.53
2023-03-16T05:49:56.391Z,1.55
2023-03-16T05:52:35.692Z,2.94
2023-03-16T05:55:17.209Z,4.36
2023-03-16T05:57:52.270Z,5.76
2023-03-16T06:00:25.759Z,6.93
2023-03-16T06:03:08.031Z,8.26
2023-03-16T06:05:42.778Z,9.45
2023-03-16T06:08:17.403Z,10.55
2023-03-16T06:10:52.339Z,11.43
2023-03-16T06:13:25.409Z,12.20
2023-03-16T06:15:57.161Z,13.14
2023-03-16T06:18:35.509Z,14.00
2023-03-16T06:21:08.070Z,14.81
2023-03-16T06:23:40.863Z,15.62
2023-03-16T06:26:13.784Z,16.22
2023-03-16T06:28:48.877Z,16.45
2023-03-16T06:31:20.785Z,16.28
2023-03-16T06:33:52.853Z,15.92
2023-03-16T06:36:25.984Z,15.40
2023-03-16T06:39:01.300Z,14.86
2023-03-16T06:41:53.520Z,14.50
2023-03-16T06:44:28.761Z,13.70
2023-03-16T06:47:15.073Z,13.38
2023-03-16T06:49:47.075Z,13.26
2023-03-16T06:52:24.016Z,13.18
2023-03-16T06:54:58.232Z,13.25
2023-03-16T06:57:31.468Z,13.51
2023-03-16T07:00:04.651Z,13.41
2023-03-16T07:02:36.385Z,13.80
2023-03-16T07:05:13.399Z,14.15
2023-03-16T07:07:45.608Z,14.24
2023-03-16T07:10:18.425Z,14.03
2023-03-16T07:12:50.538Z,13.94
2023-03-16T07:15:25.647Z,14.03
2023-03-16T07:17:59.882Z,14.13
2023-03-16T07:20:33.058Z,14.48
2023-03-16T07:23:08.267Z,14.79
2023-03-16T07:25:40.661Z,14.92
2023-03-16T07:28:12.726Z,14.67
2023-03-16T07:31:02.387Z,14.42
2023-03-16T07:33:40.755Z,14.46
2023-03-16T07:36:16.267Z,15.09
2023-03-16T07:38:57.491Z,15.40
2023-03-16T07:41:31.623Z,15.44
2023-03-16T07:44:18.659Z,15.04
2023-03-16T07:46:53.635Z,14.90
2023-03-16T07:49:29.344Z,14.75
2023-03-16T07:52:03.451Z,14.59
2023-03-16T07:54:43.407Z,14.31
2023-03-16T07:57:18.803Z,14.17
2023-03-16T07:59:50.563Z,14.06
2023-03-16T08:02:23.094Z,14.38
2023-03-16T08:04:55.646Z,14.52
2023-03-16T08:07:28.269Z,14.79
2023-03-16T08:10:12.277Z,14.84
2023-03-16T08:12:50.067Z,14.65
2023-03-16T08:15:22.392Z,14.23
2023-03-16T08:17:59.296Z,13.98
2023-03-16T08:20:32.286Z,13.66
2023-03-16T08:23:04.343Z,13.80
2023-03-16T08:25:43.309Z,13.94
2023-03-16T08:28:21.749Z,13.91
2023-03-16T08:30:55.720Z,14.10
2023-03-16T08:33:38.690Z,14.55
2023-03-16T08:36:13.847Z,14.56
2023-03-16T08:39:00.068Z,14.52
2023-03-16T08:41:38.138Z,14.33
2023-03-16T08:44:14.217Z,14.48
2023-03-16T08:46:47.398Z,14.66
2023-03-16T08:49:20.837Z,14.53
2023-03-16T08:52:00.802Z,14.53
2023-03-16T08:54:35.635Z,14.39
2023-03-16T08:57:07.727Z,14.49
2023-03-16T08:59:41.742Z,14.59
2023-03-16T09:02:14.822Z,14.84
2023-03-16T09:04:47.236Z,14.92
2023-03-16T09:07:20.546Z,14.83
2023-03-16T09:09:52.781Z,14.72
2023-03-16T09:12:25.051Z,14.75
2023-03-16T09:14:56.858Z,14.20
2023-03-16T09:17:28.648Z,14.32
2023-03-16T09:20:15.064Z,14.42
2023-03-16T09:22:52.210Z,14.34
2023-03-16T09:25:25.467Z,14.59
2023-03-16T09:27:57.299Z,15.05
2023-03-16T09:30:29.775Z,15.30
2023-03-16T09:33:04.926Z,15.38
2023-03-16T09:35:37.266Z,15.47
2023-03-16T09:38:10.194Z,15.19
2023-03-16T09:40:46.691Z,14.93
2023-03-16T09:43:32.305Z,14.84
2023-03-16T09:46:36.266Z,14.86
2023-03-16T09:49:12.306Z,14.91
2023-03-16T09:52:30.221Z,15.03
2023-03-16T09:55:15.312Z,15.21
2023-03-16T09:57:51.050Z,15.31
2023-03-16T10:00:27.956Z,15.36
2023-03-16T10:03:24.193Z,15.49
2023-03-16T10:06:02.260Z,15.73
2023-03-16T10:08:58.577Z,15.91
2023-03-16T10:11:42.777Z,15.84
2023-03-16T10:14:37.957Z,15.62
2023-03-16T10:17:22.007Z,15.46
2023-03-16T10:19:58.972Z,15.39
2023-03-16T10:22:35.698Z,15.69
2023-03-16T10:25:16.459Z,15.47
2023-03-16T10:27:49.124Z,15.29
2023-03-16T10:30:32.486Z,15.46
2023-03-16T10:33:18.446Z,15.59
2023-03-16T10:36:12.595Z,15.49
2023-03-16T10:38:48.321Z,15.54
2023-03-16T10:41:22.739Z,15.02
2023-03-16T10:43:59.838Z,14.51
2023-03-16T10:46:39.416Z,14.18
2023-03-16T10:49:22.157Z,14.59
2023-03-16T10:51:57.215Z,14.47
2023-03-16T10:54:33.750Z,14.36
2023-03-16T10:57:21.011Z,13.93
2023-03-16T10:59:56.744Z,13.45
2023-03-16T11:02:33.396Z,13.47
2023-03-16T11:05:24.692Z,13.92
2023-03-16T11:08:12.023Z,14.30
2023-03-16T11:10:58.238Z,14.57
2023-03-16T11:13:37.695Z,14.13
2023-03-16T11:16:30.609Z,13.74
2023-03-16T11:19:23.677Z,13.44
2023-03-16T11:22:08.596Z,12.66
2023-03-16T11:24:52.548Z,12.60
2023-03-16T11:27:37.565Z,12.59
2023-03-16T11:30:09.776Z,12.58
2023-03-16T11:32:46.922Z,12.60
2023-03-16T11:35:22.515Z,12.35
2023-03-16T11:38:17.744Z,12.20
2023-03-16T11:40:56.072Z,12.68
2023-03-16T11:43:55.406Z,13.31
2023-03-16T11:46:55.586Z,13.97
2023-03-16T11:49:54.881Z,14.41
2023-03-16T11:52:50.247Z,14.38
2023-03-16T11:55:29.037Z,13.66
2023-03-16T11:58:19.720Z,13.40
2023-03-16T12:01:13.264Z,13.48
2023-03-16T12:04:10.275Z,12.95
2023-03-16T12:06:47.972Z,13.18
2023-03-16T12:09:50.727Z,13.80
2023-03-16T12:12:40.570Z,14.01
2023-03-16T12:15:33.293Z,12.75
2023-03-16T12:18:16.736Z,12.02
2023-03-16T12:21:03.498Z,11.63
2023-03-16T12:23:40.821Z,11.61
2023-03-16T12:26:12.598Z,12.06
2023-03-16T12:28:45.122Z,12.16
2023-03-16T12:31:25.614Z,12.34
2023-03-16T12:34:03.085Z,12.59
2023-03-16T12:37:05.586Z,12.14
2023-03-16T12:39:55.363Z,11.64
2023-03-16T12:42:52.177Z,11.29
2023-03-16T12:46:00.926Z,11.42
2023-03-16T12:48:42.786Z,11.33
2023-03-16T12:51:14.613Z,11.31
2023-03-16T12:53:54.866Z,11.20
2023-03-16T12:56:36.471Z,11.15
2023-03-16T12:59:15.363Z,11.47
2023-03-16T13:02:13.057Z,11.62
2023-03-16T13:04:51.546Z,11.37
2023-03-16T13:07:26.377Z,11.29
2023-03-16T13:10:04.286Z,11.14
2023-03-16T13:12:38.214Z,11.00
2023-03-16T13:15:19.519Z,11.47
2023-03-16T13:18:06.615Z,11.54
2023-03-16T13:20:53.605Z,11.69
2023-03-16T13:23:27.560Z,11.57
2023-03-16T13:26:11.056Z,11.06
2023-03-16T13:28:46.095Z,10.84
2023-03-16T13:31:35.950Z,10.76
2023-03-16T13:34:14.775Z,10.76
2023-03-16T13:36:46.675Z,10.68
2023-03-16T13:39:22.318Z,10.81
2023-03-16T13:41:59.559Z,10.64
2023-03-16T13:44:32.549Z,10.61
2023-03-16T13:47:05.322Z,10.44
2023-03-16T13:49:56.905Z,10.15
2023-03-16T13:52:31.576Z,10.10
2023-03-16T13:55:06.635Z,10.13
2023-03-16T13:57:40.841Z,10.18
2023-03-16T14:00:25.428Z,10.14
2023-03-16T14:02:59.200Z,9.88
2023-03-16T14:05:35.270Z,9.73
2023-03-16T14:08:22.597Z,9.49
2023-03-16T14:10:59.828Z,9.28
2023-03-16T14:13:36.263Z,9.11
2023-03-16T14:16:13.410Z,9.05
2023-03-16T14:18:52.651Z,9.07
2023-03-16T14:21:27.406Z,9.19
2023-03-16T14:24:00.189Z,9.39
2023-03-16T14:26:46.616Z,9.35
2023-03-16T14:29:28.208Z,9.44
2023-03-16T14:32:00.259Z,9.43
2023-03-16T14:34:37.223Z,9.09
2023-03-16T14:37:11.849Z,8.90
2023-03-16T14:39:43.568Z,8.91
2023-03-16T14:42:25.989Z,8.80
2023-03-16T14:45:10.991Z,8.75
2023-03-16T14:47:46.458Z,8.65
2023-03-16T14:50:23.984Z,8.54
2023-03-16T14:52:57.271Z,8.47
2023-03-16T14:55:29.390Z,8.49
2023-03-16T14:58:01.777Z,8.44
2023-03-16T15:00:42.817Z,8.46
2023-03-16T15:03:33.220Z,8.42
2023-03-16T15:06:05.209Z,8.32
2023-03-16T15:08:44.316Z,8.30
2023-03-16T15:11:21.308Z,8.27
2023-03-16T15:13:53.833Z,8.34
2023-03-16T15:16:26.031Z,8.36
2023-03-16T15:18:57.788Z,8.44
2023-03-16T15:21:32.306Z,8.50
2023-03-16T15:24:04.067Z,8.51
2023-03-16T15:26:35.969Z,8.35
2023-03-16T15:29:13.654Z,8.30
2023-03-16T15:31:45.706Z,8.33
2023-03-16T15:34:17.481Z,8.21
2023-03-16T15:36:50.004Z,8.16
2023-03-16T15:39:24.913Z,8.22
2023-03-16T15:41:56.868Z,8.08
2023-03-16T15:44:31.709Z,8.07
2023-03-16T15:47:04.561Z,8.03
2023-03-16T15:49:47.164Z,8.02
2023-03-16T15:52:33.273Z,7.88
2023-03-16T15:55:09.424Z,7.90
2023-03-16T15:57:41.323Z,7.83
2023-03-16T16:00:37.452Z,7.80
2023-03-16T16:03:11.698Z,7.79
2023-03-16T16:05:43.394Z,7.75
2023-03-16T16:08:15.429Z,7.72
2023-03-16T16:10:48.758Z,7.69
2023-03-16T16:13:37.469Z,7.60
2023-03-16T16:16:16.073Z,7.60
2023-03-16T16:18:48.298Z,7.55
2023-03-16T16:21:24.510Z,7.54
2023-03-16T16:23:56.847Z,7.54
2023-03-16T16:26:48.300Z,7.52
2023-03-16T16:29:22.609Z,7.50
2023-03-16T16:31:55.437Z,7.48
2023-03-16T16:34:28.024Z,7.49
2023-03-16T16:36:59.787Z,7.43
2023-03-16T16:39:31.468Z,7.34
2023-03-16T16:42:03.384Z,7.31
2023-03-16T16:44:37.623Z,7.33
2023-03-16T16:47:20.618Z,7.35
2023-03-16T16:49:52.740Z,7.26
2023-03-16T16:52:24.546Z,7.20
2023-03-16T16:54:56.217Z,7.19
2023-03-16T16:57:27.910Z,7.17
2023-03-16T17:00:00.664Z,7.15
2023-03-16T17:02:43.390Z,7.13
2023-03-16T17:05:26.973Z,7.09
2023-03-16T17:08:04.080Z,7.06
2023-03-16T17:10:37.787Z,7.02
2023-03-16T17:13:26.360Z,7.02
2023-03-16T17:15:58.862Z,6.96
2023-03-16T17:18:30.660Z,6.92
2023-03-16T17:21:02.505Z,6.90
2023-03-16T17:23:37.234Z,6.86
2023-03-16T17:26:28.869Z,6.82
2023-03-16T17:29:05.325Z,6.76
2023-03-16T17:31:41.749Z,6.70
2023-03-16T17:34:23.214Z,6.66
2023-03-16T17:36:58.448Z,6.64
2023-03-16T17:39:36.453Z,6.63
2023-03-16T17:42:18.471Z,6.64
2023-03-16T17:44:52.415Z,6.60
2023-03-16T17:47:31.214Z,6.57
2023-03-16T17:50:02.959Z,6.51
2023-03-16T17:52:37.157Z,6.40
2023-03-16T17:55:09.123Z,6.35
2023-03-16T17:57:41.136Z,6.32
2023-03-16T18:00:23.439Z,6.27
2023-03-16T18:02:58.749Z,6.22
2023-03-16T18:05:35.536Z,6.14
2023-03-16T18:08:13.483Z,6.10
2023-03-16T18:10:46.842Z,6.06
2023-03-16T18:13:27.582Z,6.00
2023-03-16T18:16:02.894Z,5.99
2023-03-16T18:18:38.417Z,5.94
2023-03-16T18:21:21.741Z,5.91
2023-03-16T18:23:54.132Z,5.86
2023-03-16T18:26:27.527Z,5.86
2023-03-16T18:28:59.351Z,5.84
2023-03-16T18:31:31.172Z,5.86
2023-03-16T18:34:06.363Z,5.77
2023-03-16T18:36:43.072Z,5.72
2023-03-16T18:39:19.162Z,5.68
2023-03-16T18:41:51.094Z,5.69
2023-03-16T18:44:25.884Z,5.62
2023-03-16T18:47:01.192Z,5.54
2023-03-16T18:49:35.842Z,5.48
2023-03-16T18:52:28.424Z,5.48
2023-03-16T18:55:00.159Z,5.42
2023-03-16T18:57:32.473Z,5.44
2023-03-16T19:00:04.693Z,5.40
2023-03-16T19:02:39.065Z,5.35
2023-03-16T19:05:15.638Z,5.32
2023-03-16T19:07:50.255Z,5.32
2023-03-16T19:10:25.978Z,5.31
2023-03-16T19:12:58.416Z,5.28
2023-03-16T19:15:34.501Z,5.29
2023-03-16T19:18:06.322Z,5.32
2023-03-16T19:20:38.827Z,5.24
2023-03-16T19:23:23.597Z,5.24
2023-03-16T19:25:56.057Z,5.27
2023-03-16T19:28:34.807Z,5.29
2023-03-16T19:31:16.669Z,5.32
2023-03-16T19:33:49.551Z,5.33
2023-03-16T19:36:32.276Z,5.36
2023-03-16T19:39:04.261Z,5.30
2023-03-16T19:41:37.812Z,5.23
2023-03-16T19:44:20.606Z,5.22
2023-03-16T19:46:52.623Z,5.21
2023-03-16T19:49:27.094Z,5.23
2023-03-16T19:51:58.800Z,5.21
2023-03-16T19:54:34.097Z,5.19
2023-03-16T19:57:14.303Z,5.20
2023-03-16T19:59:50.262Z,5.22
2023-03-16T20:02:34.701Z,5.23
2023-03-16T20:05:07.882Z,5.20
2023-03-16T20:07:39.569Z,5.15
2023-03-16T20:10:23.664Z,5.12
2023-03-16T20:13:00.614Z,5.13
2023-03-16T20:15:33.252Z,5.16
2023-03-16T20:18:13.232Z,5.19
2023-03-16T20:20:46.176Z,5.23
2023-03-16T20:23:26.582Z,5.22
2023-03-16T20:26:02.642Z,5.15
2023-03-16T20:28:36.969Z,5.14
2023-03-16T20:31:17.408Z,5.14
2023-03-16T20:33:50.737Z,5.20
2023-03-16T20:36:24.175Z,5.20
2023-03-16T20:38:56.057Z,5.23
2023-03-16T20:41:32.770Z,5.23
2023-03-16T20:44:05.003Z,5.23
2023-03-16T20:46:41.245Z,5.25
2023-03-16T20:49:22.607Z,5.23
2023-03-16T20:51:54.330Z,5.28
2023-03-16T20:54:26.120Z,5.27
2023-03-16T20:56:57.872Z,5.31
2023-03-16T20:59:30.426Z,5.34
2023-03-16T21:02:03.216Z,5.34
2023-03-16T21:04:34.914Z,5.38
2023-03-16T21:07:06.910Z,5.40
2023-03-16T21:09:38.556Z,5.40
2023-03-16T21:12:34.815Z,5.37
2023-03-16T21:15:29.280Z,5.35
2023-03-16T21:18:06.464Z,5.29
2023-03-16T21:20:38.216Z,5.20
2023-03-16T21:23:19.198Z,5.20
2023-03-16T21:25:56.787Z,5.19
2023-03-16T21:28:32.492Z,5.16
2023-03-16T21:31:05.237Z,5.16
2023-03-16T21:33:43.268Z,5.17
2023-03-16T21:36:18.170Z,5.19
2023-03-16T21:38:50.563Z,5.20
2023-03-16T21:41:22.936Z,5.22
2023-03-16T21:43:55.020Z,5.22
2023-03-16T21:46:29.837Z,5.20
2023-03-16T21:49:03.662Z,5.19
2023-03-16T21:51:36.289Z,5.08
2023-03-16T21:54:13.531Z,4.99
2023-03-16T21:56:46.465Z,4.91
2023-03-16T21:59:18.162Z,4.89
2023-03-16T22:02:01.088Z,4.89
2023-03-16T22:04:33.689Z,4.89
2023-03-16T22:07:11.633Z,4.90
2023-03-16T22:09:43.408Z,4.89
2023-03-16T22:12:15.812Z,4.85
2023-03-16T22:14:48.345Z,4.83
2023-03-16T22:17:22.280Z,4.83
2023-03-16T22:19:54.072Z,4.79
2023-03-16T22:22:27.283Z,4.72
2023-03-16T22:24:58.950Z,4.64
2023-03-16T22:27:30.630Z,4.60
2023-03-16T22:30:03.423Z,4.58
2023-03-16T22:32:35.583Z,4.55
2023-03-16T22:35:13.919Z,4.51
2023-03-16T22:37:45.745Z,4.47
2023-03-16T22:40:18.985Z,4.43
2023-03-16T22:42:50.760Z,4.41
2023-03-16T22:45:25.018Z,4.39
2023-03-16T22:47:58.508Z,4.36
2023-03-16T22:50:35.209Z,4.32
2023-03-16T22:53:08.898Z,4.27
2023-03-16T22:55:40.723Z,4.25
2023-03-16T22:58:32.552Z,4.20
2023-03-16T23:01:21.731Z,4.16
2023-03-16T23:03:53.784Z,4.10
2023-03-16T23:06:31.483Z,4.09
2023-03-16T23:09:03.639Z,4.03
2023-03-16T23:11:36.461Z,3.98
2023-03-16T23:14:16.899Z,3.97
2023-03-16T23:16:49.354Z,3.97
2023-03-16T23:19:33.902Z,4.00
2023-03-16T23:22:07.225Z,4.03
2023-03-16T23:24:39.852Z,4.05
2023-03-16T23:27:21.415Z,4.07
2023-03-16T23:29:53.220Z,4.06
2023-03-16T23:32:24.888Z,4.06
2023-03-16T23:34:56.539Z,4.03
2023-03-16T23:37:28.312Z,4.02
2023-03-16T23:39:59.992Z,4.03
2023-03-16T23:42:31.715Z,4.06
2023-03-16T23:45:10.200Z,4.03
2023-03-16T23:47:42.132Z,4.04
2023-03-16T23:50:17.556Z,4.04
2023-03-16T23:52:49.287Z,4.04
2023-03-16T23:55:21.457Z,4.05
2023-03-16T23:57:53.166Z,4.03
